Swan Lake, South Dakota
Current Conditions -  °F | °C
As of 9:55 AM on Friday 28 Nov 2014 (Local Time) from KYKN Reporting Station
Clear Clear  
Wind Chill: -5°   Ceiling: Unl
Heat Index: -1°   Visibility: 10mi
Dew Point: -6°   Wind: 7mph
Humidity: 69%   Direction: 100°E
Pressure: 29.78"   Gusts: NA
Location:  43.1951°N, 97.1515°W
Report Text: KYKN 281555Z AUTO 10006KT 10SM CLR M01/M06 A2978 RMK AO1
Loading
Personal Weather Stations






























Interactive Weather Map New forecast layout! Learn more

10-Day Weather Forecast

Advertisements
Track Severe Weather on mobile